createdAt,value
2022-08-05T19:06:11.284Z,25.55
2022-08-05T19:08:45.246Z,25.25
2022-08-05T19:12:00.182Z,25.07
2022-08-05T19:15:03.034Z,25.04
2022-08-05T19:18:10.247Z,24.98
2022-08-05T19:21:12.205Z,25.05
2022-08-05T19:24:13.765Z,25.14
2022-08-05T19:27:15.296Z,25.20
2022-08-05T19:30:17.164Z,25.16
2022-08-05T19:33:33.904Z,25.13
2022-08-05T19:36:38.437Z,25.06
2022-08-05T19:39:45.522Z,25.00
2022-08-05T19:43:05.026Z,24.92
2022-08-05T19:46:16.747Z,24.83
2022-08-05T19:49:29.064Z,24.84
2022-08-05T19:52:32.387Z,24.96
2022-08-05T19:56:15.094Z,25.01
2022-08-05T19:58:55.611Z,25.05
2022-08-05T20:02:01.344Z,25.08
2022-08-05T20:05:05.096Z,25.15
2022-08-05T20:08:11.299Z,25.17
2022-08-05T20:11:12.926Z,25.15
2022-08-05T20:14:23.515Z,25.13
2022-08-05T20:17:29.265Z,25.07
2022-08-05T20:20:38.106Z,25.02
2022-08-05T20:23:50.930Z,25.00
2022-08-05T20:26:53.215Z,24.95
2022-08-05T20:29:58.569Z,24.90
2022-08-05T20:33:00.525Z,24.91
2022-08-05T20:36:02.141Z,24.94
2022-08-05T20:39:03.926Z,24.81
2022-08-05T20:42:11.560Z,24.57
2022-08-05T20:45:13.408Z,24.45
2022-08-05T20:48:16.574Z,24.55
2022-08-05T20:51:18.274Z,24.61
2022-08-05T20:54:19.794Z,24.52
2022-08-05T20:57:43.586Z,24.53
2022-08-05T21:00:54.291Z,24.59
2022-08-05T21:03:57.983Z,24.66
2022-08-05T21:07:02.694Z,24.65
2022-08-05T21:10:05.810Z,24.68
2022-08-05T21:13:11.274Z,24.66
2022-08-05T21:16:16.361Z,24.59
2022-08-05T21:19:17.852Z,24.52
2022-08-05T21:22:23.929Z,24.46
2022-08-05T21:25:25.576Z,24.36
2022-08-05T21:28:35.636Z,24.21
2022-08-05T21:31:41.361Z,24.10
2022-08-05T21:34:43.269Z,24.00
2022-08-05T21:37:53.302Z,23.87
2022-08-05T21:40:58.056Z,23.92
2022-08-05T21:44:03.665Z,23.93
2022-08-05T21:47:06.322Z,23.92
2022-08-05T21:50:27.966Z,23.87
2022-08-05T21:53:29.581Z,23.83
2022-08-05T21:56:31.085Z,23.74
2022-08-05T21:59:48.130Z,23.73
2022-08-05T22:02:54.810Z,23.52
2022-08-05T22:05:56.627Z,23.39
2022-08-05T22:08:58.609Z,23.21
2022-08-05T22:12:02.311Z,23.14
2022-08-05T22:15:16.392Z,23.01
2022-08-05T22:18:19.559Z,22.88
2022-08-05T22:21:21.212Z,22.75
2022-08-05T22:24:52.041Z,22.73
2022-08-05T22:28:10.515Z,22.51
2022-08-05T22:31:13.376Z,22.38
2022-08-05T22:34:25.425Z,22.23
2022-08-05T22:37:58.111Z,22.23
2022-08-05T22:40:55.201Z,22.17
2022-08-05T22:43:59.192Z,22.05
2022-08-05T22:47:00.685Z,22.05
2022-08-05T22:50:19.305Z,22.00
2022-08-05T22:53:24.499Z,22.01
2022-08-05T22:56:40.021Z,21.97
2022-08-05T22:59:45.781Z,21.90
2022-08-05T23:02:52.090Z,21.82
2022-08-05T23:05:55.736Z,21.63
2022-08-05T23:09:27.278Z,21.63
2022-08-05T23:12:20.335Z,21.62
2022-08-05T23:15:29.854Z,21.57
2022-08-05T23:18:36.605Z,21.50
2022-08-05T23:21:42.741Z,21.48
2022-08-05T23:24:51.225Z,21.49
2022-08-05T23:28:00.197Z,21.48
2022-08-05T23:31:15.788Z,21.44
2022-08-05T23:34:24.446Z,21.29
2022-08-05T23:37:26.827Z,21.37
2022-08-05T23:40:37.972Z,21.22
2022-08-05T23:44:05.411Z,21.19
2022-08-05T23:47:02.341Z,21.09
2022-08-05T23:50:17.114Z,21.16
2022-08-05T23:53:22.911Z,21.15
2022-08-05T23:56:27.283Z,21.13
